Tiempo atmosférico en la estación meteorológica de Medina De Pomar, Burgos (580 m.)



Fecha
DESCASC
Temp. máxima en grados centígrados (hora)
DESCASC
Temp. mínima en grados centígrados (hora)
DESCASC
Temp. media en grados centígrados
DESCASC
Racha de viento máxima en m/sg (hora)
DESCASC
Velocidad máxima media en intervalos de 10 minutos(hora)
DESCASC
Precipitaciones diarias en mm
DESCASC
Precipitaciones de 00:00 a 06:00 en mm
DESCASC
Precipitaciones de 06:00 a 12:00 en mm
DESCASC
Precipitaciones de 12:00 a 18:00 en mm
DESCASC
Precipitaciones de 18:00 a 24:00 en mm
DESCASC
11-08-2020 29.5 (13:30) 17 (03:20) 23.3 10.56 (14:20) 5 (14:20) 4 1.4 1 0.4 1.2
10-08-2020 31.6 (15:20) 18.3 (07:10) 24.9 12.5 (16:30) 6.67 (16:40) 6.2 2.6 0.2 1 2.4
09-08-2020 37.1 (16:30) 16.2 (07:30) 26.6 9.44 (20:30) 5.28 (20:30) 13.2 0.2 0.2 0 12.8
08-08-2020 35.5 (16:00) 14.8 (07:40) 25.2 11.11 (20:20) 5.28 (20:50) 4.2 0 0 0 4.2
07-08-2020 39.3 (16:20) 16.3 (00:00) 27.8 13.89 (17:30) 6.67 (18:20) 0 0 0 0 0
06-08-2020 37.4 (16:20) 9.3 (00:00) 23.4 8.33 (20:10) 3.61 (20:10) 0 0 0 0 0
05-08-2020 34.8 (17:30) 8.1 (00:00) 21.4 8.33 (19:20) 4.44 (19:20) 0 0 0 0 0
04-08-2020 25.6 (17:20) 11.2 (04:20) 18.4 8.33 (17:30) 4.44 (20:30) 0 0 0 0 0
03-08-2020 24.7 (17:10) 10.5 (08:10) 17.6 10.56 (17:40) 4.72 (18:30) 0 0 0 0 0
02-08-2020 21.9 (15:50) 16.1 (00:00) 19 10 (15:20) 5 (17:20) 0 0 0 0 0
01-08-2020 25.9 (15:00) 15.2 (00:00) 20.5 10 (16:50) 4.72 (17:20) 0 0 0 0 0
31-07-2020 36.9 (16:40) 15.4 (07:40) 26.2 10 (19:00) 5 (17:30) 0 0 0 0 0
30-07-2020 36.6 (15:10) 13.9 (00:00) 25.2 17.78 (15:30) 7.5 (15:30) 0.6 0 0 0.2 0.4
29-07-2020 29.5 (17:00) 16.7 (00:00) 23.1 8.61 (00:10) 4.17 (19:20) 0 0 0 0 0
28-07-2020 25.6 (16:40) 13.8 (00:00) 19.7 9.72 (23:20) 5.28 (23:20) 0 0 0 0 0
27-07-2020 37.3 (16:00) 12.9 (00:00) 25.1 12.5 (17:10) 5.83 (17:40) 0 0 0 0 0
26-07-2020 30.1 (16:40) 11.5 (00:00) 20.8 10.28 (18:20) 5 (18:20) 0 0 0 0 0
25-07-2020 32.3 (16:20) 10.6 (00:00) 21.4 12.22 (17:50) 5.56 (17:50) 0 0 0 0 0
24-07-2020 25.6 (16:20) 15.7 (00:00) 20.7 9.44 (21:10) 4.17 (18:10) 0 0 0 0 0
23-07-2020 28.1 (15:40) 16.9 (00:00) 22.5 10.83 (19:20) 5.56 (19:30) 0 0 0 0 0
22-07-2020 33 (15:50) 17.4 (00:00) 25.2 10 (20:20) 4.72 (17:40) 0 0 0 0 0
21-07-2020 30.4 (16:10) 12.5 (00:00) 21.4 11.11 (16:20) 5.28 (17:20) 1.8 0 0 0 1.8
20-07-2020 29 (15:10) 12.9 (00:00) 20.9 10.83 (19:20) 5 (16:40) 0 0 0 0 0
19-07-2020 36.1 (16:00) 11 (00:00) 23.5 11.94 (17:20) 5.28 (16:50) 0 0 0 0 0
18-07-2020 31.4 (17:30) 13.3 (00:00) 22.3 8.33 (20:50) 3.89 (18:40) 0 0 0 0 0
17-07-2020 23.8 (15:20) 14 (00:00) 18.9 10 (17:10) 4.72 (17:00) 0 0 0 0 0
16-07-2020 24.9 (15:20) 9.4 (00:00) 17.1 10 (16:40) 4.17 (18:30) 0 0 0 0 0
15-07-2020 23.1 (15:20) 8.7 (00:00) 15.9 11.39 (13:20) 5.83 (13:30) 0 0 0 0 0

Gráficas

Temp. máximas Temp. mínimas Temp. medias Precipitaciones Rachas de viento máximas Velocidades máximas media en intervalos de 10 minutos

Datos horarios

Fecha y hora oficial Temperatura (ºC) Velocidad del viento (km/h) Dirección del viento Racha (km/h) Dirección de racha Precipitación (mm) Presión (hPa) Tendencia (hPa) Humedad (%)
2020-08-13 23:00:00 16.5 6 Norte 18 Nordeste 0 953 1.7 78
2020-08-13 22:00:00 17 8 Nordeste 28 Nordeste 0 952.4 1.7 77
2020-08-13 21:00:00 17.3 11 Nordeste 33 Nordeste 0 951.9 1.7 76
2020-08-13 20:00:00 18.9 15 Nordeste 35 Nordeste 0 951.3 1.1 70
2020-08-13 19:00:00 21.7 13 Nordeste 40 Nordeste 0 950.7 0.1 62
2020-08-13 18:00:00 23.8 14 Nordeste 39 Este 0 950.2 -0.8 54
2020-08-13 17:00:00 25 14 Nordeste 28 Este 0 950.2 -1 48
2020-08-13 16:00:00 24.7 6 Norte 22 Norte 0 950.6 -- 45
2020-08-13 15:00:00 23 8 Norte 19 Nordeste 0 951 -- 50
2020-08-13 14:00:00 23.4 4 Este 15 Este 0 951.2 -- 50
2020-08-13 13:00:00 21.8 3 Sur 11 Sudeste 0 951.6 -- 54
2020-08-13 12:00:00 19.1 3 Sur 8 Sur 0 951.7 -- 63
2020-08-13 11:00:00 18 3 Sur 6 Sur 0.2 951.4 -- 68
2020-08-13 10:00:00 17.2 2 Noroeste 6 Norte 0 951.4 -- 70
2020-08-13 09:00:00 16.6 2 Este 5 Oeste 0 950.8 -- 74
2020-08-13 08:00:00 16.1 0 Calma 16 Sudoeste 0 950.4 -- 76
2020-08-13 07:00:00 15.8 0 Calma 5 Sur 0 949.9 -- 80
2020-08-13 06:00:00 16.5 2 Sudeste 8 Oeste 0 949.6 -- 76
2020-08-13 05:00:00 16.9 6 Noroeste 16 Norte 0 949.5 -- 73
2020-08-13 04:00:00 17 0 Calma 14 Norte 0 949.5 -- 80
2020-08-13 03:00:00 17.3 3 Noroeste 8 Oeste 0 949.1 -- 81
2020-08-13 02:00:00 17.5 2 Oeste 7 Oeste 0 949.2 -- 82
2020-08-13 01:00:00 17.8 2 Noroeste 9 Noroeste 0 949.2 -- 80
2020-08-13 00:00:00 18 4 Noroeste 10 Noroeste 0 949.1 -- 80
2020-08-12 23:00:00 18.4 3 Norte 7 Norte 0 948.7 -- 80
2020-08-12 22:00:00 18.8 2 Noroeste 10 Oeste 0 947.9 -- 75
2020-08-12 21:00:00 19.3 3 Noroeste 13 Sudoeste 0.4 947.3 -- 74
2020-08-12 20:00:00 21 4 Oeste 23 Oeste 0 947.1 -- 65
2020-08-12 19:00:00 23.7 8 Oeste 29 Oeste 0 946.3 -- 48
2020-08-12 18:00:00 25.7 10 Sudoeste 33 Sudoeste 0 945.5 -- 34
2020-08-12 17:00:00 26.9 11 Sudoeste 33 Oeste 0 945.6 -- 36
2020-08-12 16:00:00 26.7 17 Sudoeste 35 Sudoeste 0 946.1 -- 29
2020-08-12 15:00:00 26.5 8 Sur 27 Sur 0 946.3 -- 37
2020-08-12 14:00:00 25.2 13 Sudoeste 35 Sudoeste 0 946.9 -- 44
2020-08-12 13:00:00 24.6 6 Sudeste 21 Sudeste 2.4 947.1 -- 46
2020-08-12 12:00:00 23.3 7 Sur 16 Sur 0.2 947.2 -- 50
2020-08-12 11:00:00 21.1 6 Oeste 23 Sudeste 0.2 947.3 -- 65
2020-08-12 10:00:00 18.7 3 Noroeste 10 Sur 0.2 947.2 -- 82
2020-08-12 09:00:00 16.3 4 Sur 9 Sudoeste 0 947.7 -- 92
2020-08-12 08:00:00 15.4 3 Este 7 Este 0.2 947 -- 93
2020-08-12 07:00:00 16 3 Sur 7 Sur 0 946.2 -- 92
2020-08-12 06:00:00 16.6 0 Calma 4 Norte 0.2 946.6 -- 91
2020-08-12 05:00:00 16.7 2 Norte 10 Noroeste 0.2 947.5 -- 91
2020-08-12 04:00:00 16.8 6 Norte 17 Sur 0.2 946.5 -- 91
2020-08-12 03:00:00 17.4 4 Nordeste 7 Este 0.2 947.6 -- 89
2020-08-12 02:00:00 17.9 0 Calma 10 Sudoeste 0.2 947.9 -- 84
2020-08-12 01:00:00 19.4 3 Sur 11 Sudeste 0.2 948.1 -- 76
2020-08-12 00:00:00 20.3 7 Sudeste 28 Sudeste 0.2 948.8 -- 65
2020-08-11 23:00:00 19.4 0 Calma 12 Nordeste 0.2 948.1 -- 83
2020-08-11 22:00:00 19.9 3 Norte 6 Norte 0.2 947.2 -- 79
2020-08-11 21:00:00 21.6 2 Sur 10 Sur 0.2 947 -- 70
2020-08-11 20:00:00 21.4 3 Sudeste 18 Sudoeste 0.2 947 -- 73
2020-08-11 19:00:00 21.6 9 Sudeste 15 Sudeste 0.2 947.3 -- 73
2020-08-11 18:00:00 20.7 8 Sudeste 18 Sudeste 0.2 948.2 -- 80
2020-08-11 17:00:00 19.1 0 Calma 24 Oeste 0.2 948.6 -- 85
2020-08-11 16:00:00 19.2 7 Norte 35 Sudoeste 0 950.7 -- 80
2020-08-11 15:00:00 23.2 8 Sur 38 Sur 0 948.6 -- 60
2020-08-11 14:00:00 28.2 16 Sudeste 35 Sur 0 947.4 -- 42
2020-08-11 13:00:00 27.1 4 Norte 12 Nordeste 0 947 -- 54
2020-08-11 12:00:00 23.3 3 Sudoeste 9 Oeste 0.2 947.5 -- 69
2020-08-11 11:00:00 20.5 3 Noroeste 12 Nordeste 0.2 947.8 -- 82
2020-08-11 10:00:00 18.5 3 Oeste 9 Oeste 0.2 948.3 -- 90
2020-08-11 09:00:00 18 4 Sudeste 8 Sudeste 0.2 947.8 -- 92
2020-08-11 08:00:00 17.5 3 Noroeste 7 Sur 0 948 -- 93
2020-08-11 07:00:00 17.3 4 Sudeste 13 Sur 0.2 947.9 -- 93
2020-08-11 06:00:00 17.4 4 Sudeste 17 Nordeste 0.2 947.8 -- 93
2020-08-11 05:00:00 17.5 8 Norte 20 Norte 0.2 947.8 -- 93
2020-08-11 04:00:00 17.2 3 Sudeste 7 Este 0.2 948.7 -- 92
2020-08-11 03:00:00 17.4 0 Calma 7 Nordeste 0.2 948.2 -- 91
2020-08-11 02:00:00 17.8 2 Nordeste 14 Norte 0.2 948.2 -- 90
2020-08-11 01:00:00 18.2 5 Noroeste 15 Noroeste 0.4 948.2 -- 89
2020-08-11 00:00:00 18.6 5 Norte 20 Norte 0.2 948 -- 87
2020-08-10 23:00:00 19.1 6 Norte 24 Norte 0.4 947.8 -- 84
2020-08-10 22:00:00 19.8 9 Norte 22 Norte 0.4 946.8 -- 82
2020-08-10 21:00:00 22.7 6 Norte 23 Nordeste 0.4 946.3 -- 74
2020-08-10 20:00:00 23.8 10 Norte 24 Nordeste 0.6 945.9 -- 72
2020-08-10 19:00:00 22 8 Norte 19 Norte 0.4 946.3 -- 79
2020-08-10 18:00:00 21.9 7 Nordeste 43 Nordeste 1 946.4 -- 81
2020-08-10 17:00:00 22 17 Norte 45 Nordeste 0 945 -- 86
2020-08-10 16:00:00 28.8 17 Norte 36 Norte 0 945 -- 50
2020-08-10 15:00:00 31 6 Nordeste 19 Norte 0 945.4 -- 42
2020-08-10 14:00:00 28.7 4 Oeste 14 Oeste 0 946 -- 48
2020-08-10 13:00:00 25.8 4 Norte 12 Norte 0 946.9 -- 57
2020-08-10 12:00:00 23.5 3 Nordeste 12 Este 0.2 947.6 -- 64
2020-08-10 11:00:00 21.4 8 Nordeste 14 Nordeste 0 947.8 -- 74
2020-08-10 10:00:00 19.8 6 Norte 12 Nordeste 0 947.5 -- 80
2020-08-10 09:00:00 19.2 5 Norte 12 Norte 0 947.6 -- 85
2020-08-10 08:00:00 18.6 6 Norte 17 Nordeste 0 947.5 -- 87
2020-08-10 07:00:00 18.5 7 Nordeste 15 Nordeste 0 947.6 -- 89
2020-08-10 06:00:00 19.2 6 Norte 14 Norte 0 947.3 -- 89
2020-08-10 05:00:00 19.4 5 Nordeste 10 Nordeste 0 947.3 -- 89
2020-08-10 04:00:00 19.7 4 Norte 9 Oeste 0.4 947.7 -- 88
2020-08-10 03:00:00 19.7 5 Norte 15 Norte 0.4 948.2 -- 89
2020-08-10 02:00:00 19.8 6 Norte 15 Norte 0.6 948.5 -- 89
2020-08-10 01:00:00 20 8 Norte 19 Nordeste 1.2 948.7 -- 90
2020-08-10 00:00:00 20 4 Norte 19 Norte 1.6 948.8 -- 91
2020-08-09 23:00:00 20.5 8 Norte 18 Norte 3 948.4 -- 88
2020-08-09 22:00:00 22 6 Noroeste 26 Norte 4.4 948.1 -- 82
2020-08-09 21:00:00 23.6 6 Oeste 34 Nordeste 3.8 947.8 -- 81
2020-08-09 20:00:00 27.5 13 Norte 30 Norte 0 946.5 -- 67
2020-08-09 19:00:00 31.6 13 Nordeste 31 Nordeste 0 946.4 -- 44
2020-08-09 18:00:00 32.8 14 Nordeste 30 Nordeste 0 946.3 -- 39
2020-08-09 17:00:00 36.1 4 Sudeste 19 Sudeste 0 946.7 -- 23
2020-08-09 16:00:00 36.4 5 Norte 15 Nordeste 0 947.2 -- 25
2020-08-09 15:00:00 34.1 5 Norte 15 Sudeste 0 948 -- 29
2020-08-09 14:00:00 31.4 4 Norte 10 Noroeste 0 949 -- 40
2020-08-09 13:00:00 28.4 3 Nordeste 9 Sudoeste 0 949.9 -- 47
2020-08-09 12:00:00 26 3 Este 8 Norte 0 950.3 -- 55
2020-08-09 11:00:00 22.7 3 Sudoeste 7 Sudoeste 0 950.8 -- 69
2020-08-09 10:00:00 19.8 2 Este 6 Sudeste 0.2 951.2 -- 82
2020-08-09 09:00:00 17.4 0 Calma 4 Oeste 0 951.4 -- 91
2020-08-09 08:00:00 16.2 0 Calma 6 Nordeste 0 951.5 -- 92
2020-08-09 07:00:00 16.3 2 Norte 6 Nordeste 0 951.5 -- 91
2020-08-09 06:00:00 17 2 Nordeste 6 Norte 0 951.6 -- 91
2020-08-09 05:00:00 18 2 Norte 6 Oeste 0 951.8 -- 91
2020-08-09 04:00:00 18.6 3 Oeste 12 Noroeste 0 952.4 -- 89
2020-08-09 03:00:00 19.6 2 Noroeste 14 Sudeste 0.2 952.6 -- 86
2020-08-09 02:00:00 19.7 5 Sur 13 Sudeste 0 953.1 -- 86
2020-08-09 01:00:00 20.3 6 Norte 30 Sudeste 0 953.8 -- 82
2020-08-09 00:00:00 20.6 7 Este 18 Sudeste 0 953.8 -- 82
2020-08-08 23:00:00 20.7 3 Oeste 20 Nordeste 0.6 954.6 -- 83
2020-08-08 22:00:00 21.1 3 Nordeste 26 Noroeste 0.8 955.9 -- 82
2020-08-08 21:00:00 21.7 15 Oeste 40 Oeste 2.6 954.3 -- 80
2020-08-08 20:00:00 26.4 10 Nordeste 26 Norte 0.2 952 -- 57
2020-08-08 19:00:00 31.3 12 Nordeste 36 Nordeste 0 950.5 -- 37
2020-08-08 18:00:00 33.4 17 Nordeste 34 Este 0 950.7 -- 30
2020-08-08 17:00:00 35.1 13 Norte 26 Nordeste 0 951.4 -- 24
2020-08-08 16:00:00 35.5 6 Sudoeste 16 Sudeste 0 952 -- 23
2020-08-08 15:00:00 33.8 6 Sudeste 12 Este 0 952.8 -- 24
2020-08-08 14:00:00 32.2 4 Nordeste 14 Sudeste 0 953.3 -- 27
2020-08-08 13:00:00 30.1 5 Sur 10 Sur 0 954 -- 29
2020-08-08 12:00:00 27.2 3 Oeste 12 Oeste 0 954.4 -- 34
2020-08-08 11:00:00 24.5 3 Norte 8 Noroeste 0 954.9 -- 46
2020-08-08 10:00:00 20.6 3 Oeste 7 Noroeste 0 955.2 -- 63
2020-08-08 09:00:00 17.3 3 Nordeste 6 Nordeste 0 955.2 -- 79
2020-08-08 08:00:00 14.8 0 Calma 7 Nordeste 0 955 -- 89
2020-08-08 07:00:00 15.2 2 Norte 7 Nordeste 0 954.7 -- 88
2020-08-08 06:00:00 15.9 0 Calma 4 Este 0 954.6 -- 87
2020-08-08 05:00:00 16.8 2 Norte 7 Nordeste 0 954.6 -- 86
2020-08-08 04:00:00 17.5 3 Norte 8 Nordeste 0 954.5 -- 84
2020-08-08 03:00:00 18.2 3 Nordeste 10 Nordeste 0 954.7 -- 81
2020-08-08 02:00:00 19.3 5 Nordeste 10 Nordeste 0 954.8 -- 80
2020-08-08 01:00:00 20.4 3 Nordeste 7 Norte 0 954.5 -- 78
2020-08-08 00:00:00 21.7 4 Norte 13 Norte 0 954.3 -- 73
2020-08-07 23:00:00 22.4 4 Noroeste 13 Norte 0 953.9 -- 72
2020-08-07 22:00:00 23 6 Norte 21 Norte 0 952.8 -- 71
2020-08-07 21:00:00 24.6 10 Norte 25 Norte 0 952.3 -- 65
2020-08-07 20:00:00 27.6 9 Noroeste 38 Nordeste 0 951.1 -- 56
2020-08-07 19:00:00 29.1 20 Nordeste 49 Nordeste 0 950.3 -- 49
2020-08-07 18:00:00 29.2 16 Norte 50 Noroeste 0 949.6 -- 51
2020-08-07 17:00:00 38.5 14 Sudeste 39 Sudeste 0 948.5 -- 19
2020-08-07 16:00:00 38.9 10 Sudeste 32 Sudeste 0 949 -- 18
2020-08-07 15:00:00 37.5 11 Sudeste 28 Sudeste 0 949.8 -- 22
2020-08-07 14:00:00 36 10 Sudeste 22 Este 0 950.1 -- 24
2020-08-07 13:00:00 33.6 7 Sudeste 19 Sudeste 0 950.6 -- 29
2020-08-07 12:00:00 30.6 9 Sur 21 Sur 0 951.3 -- 36
2020-08-07 11:00:00 27.3 5 Sur 11 Sudeste 0 951.4 -- 43
2020-08-07 10:00:00 23.1 2 Norte 12 Sudeste 0 951.6 -- 54
2020-08-07 09:00:00 18.3 2 Nordeste 7 Oeste 0 951.2 -- 73
2020-08-07 08:00:00 16.4 3 Este 10 Nordeste 0 950.9 -- 78
2020-08-07 07:00:00 16.5 5 Norte 9 Noroeste 0 950.5 -- 76
2020-08-07 06:00:00 17.4 3 Norte 9 Norte 0 949.8 -- 74
2020-08-07 05:00:00 17.9 0 Calma 12 Norte 0 949.6 -- 72
2020-08-07 04:00:00 18.7 0 Calma 5 Norte 0 949.3 -- 71
2020-08-07 03:00:00 20.1 2 Noroeste 9 Nordeste 0 949.3 -- 67
2020-08-07 02:00:00 21.3 0 Calma 5 Este 0 949.4 -- 66
2020-08-07 01:00:00 22.7 0 Calma 5 Nordeste 0 949.3 -- 62
2020-08-07 00:00:00 24.7 0 Calma 6 Norte 0 949.1 -- 56
2020-08-06 23:00:00 27 5 Norte 16 Noroeste 0 948.8 -- 49
2020-08-06 22:00:00 29.4 2 Norte 11 Nordeste 0 948.1 -- 39
2020-08-06 21:00:00 32.6 6 Nordeste 30 Nordeste 0 947.6 -- 31
2020-08-06 20:00:00 34.3 9 Nordeste 23 Este 0 947.1 -- 24
2020-08-06 19:00:00 35.8 8 Sudeste 23 Sudeste 0 947 -- 20
2020-08-06 18:00:00 35.6 6 Sudeste 24 Sudeste 0 947 -- 20
2020-08-06 17:00:00 37.4 11 Sudeste 26 Sudeste 0 947.3 -- 17
2020-08-06 16:00:00 37 8 Sur 26 Este 0 947.8 -- 17
2020-08-06 15:00:00 34.8 5 Sur 18 Este 0 948.5 -- 21
2020-08-06 14:00:00 32.6 8 Sudeste 18 Sudeste 0 949.1 -- 24
2020-08-06 13:00:00 28.9 6 Sur 14 Sudoeste 0 949.6 -- 28
2020-08-06 12:00:00 25.1 3 Sudoeste 11 Sudoeste 0 950.2 -- 35
2020-08-06 11:00:00 21.4 3 Sudoeste 9 Sudeste 0 950.5 -- 45
2020-08-06 10:00:00 17.5 2 Sur 6 Nordeste 0 950.7 -- 55
2020-08-06 09:00:00 13.6 0 Calma 6 Nordeste 0 950.8 -- 66
2020-08-06 08:00:00 9.5 2 Nordeste 6 Nordeste 0 950.5 -- 81
2020-08-06 07:00:00 9.7 3 Nordeste 6 Norte 0 950.2 -- 78
2020-08-06 06:00:00 10.7 4 Norte 10 Norte 0 950 -- 79
2020-08-06 05:00:00 11.2 3 Nordeste 7 Norte 0 950 -- 77
2020-08-06 04:00:00 12.3 3 Nordeste 6 Nordeste 0 950.1 -- 77
2020-08-06 03:00:00 13.5 5 Nordeste 7 Nordeste 0 950.2 -- 76
2020-08-06 02:00:00 15.4 2 Oeste 8 Nordeste 0 950.1 -- 73
2020-08-06 01:00:00 16.7 2 Este 9 Norte 0 950 -- 69
2020-08-06 00:00:00 19.1 3 Norte 11 Norte 0 949.8 -- 57
2020-08-05 23:00:00 21 3 Nordeste 13 Norte 0 949.5 -- 50
2020-08-05 22:00:00 24.4 6 Norte 18 Nordeste 0 948.7 -- 41
2020-08-05 21:00:00 27.3 11 Nordeste 25 Nordeste 0 947.9 -- 33
2020-08-05 20:00:00 29.9 11 Norte 30 Nordeste 0 947.3 -- 26
2020-08-05 19:00:00 31.8 13 Nordeste 30 Nordeste 0 947.1 -- 22
2020-08-05 18:00:00 32.7 15 Norte 27 Nordeste 0 946.9 -- 17
2020-08-05 17:00:00 34.2 8 Nordeste 19 Nordeste 0 947 -- 12
2020-08-05 16:00:00 32.7 7 Noroeste 18 Norte 0 947.3 -- 15
2020-08-05 15:00:00 31.4 6 Este 13 Este 0 947.7 -- 13
2020-08-05 14:00:00 28.3 4 Nordeste 10 Este 0 948.2 -- 24
2020-08-05 13:00:00 25.6 4 Este 12 Sur 0 948.7 -- 30
2020-08-05 12:00:00 21.4 3 Este 10 Sudeste 0 949.4 -- 48
2020-08-05 11:00:00 16.7 4 Sudeste 8 Este 0 949.8 -- 72
2020-08-05 10:00:00 11.9 3 Sur 9 Noroeste 0 950.1 -- 92
2020-08-05 09:00:00 10.3 0 Calma 5 Nordeste 0 950 -- 93
2020-08-05 08:00:00 8.4 3 Nordeste 5 Nordeste 0 949.8 -- 92
2020-08-05 07:00:00 8.5 3 Nordeste 8 Nordeste 0 949.6 -- 91
2020-08-05 06:00:00 9 3 Nordeste 6 Nordeste 0 949.9 -- 90
2020-08-05 05:00:00 10.2 3 Este 8 Nordeste 0 950.1 -- 91
2020-08-05 04:00:00 11.2 0 Calma 5 Nordeste 0 950.3 -- 89
2020-08-05 03:00:00 12.4 0 Calma 8 Nordeste 0 950.7 -- 88
2020-08-05 02:00:00 13.7 2 Nordeste 10 Nordeste 0 951.1 -- 87
2020-08-05 01:00:00 15 3 Sudeste 10 Noroeste 0 951.3 -- 82
2020-08-05 00:00:00 16.8 5 Norte 13 Norte 0 951.3 -- 77
2020-08-04 23:00:00 18 5 Nordeste 17 Nordeste 0 951.2 -- 72
2020-08-04 22:00:00 19.4 6 Norte 22 Nordeste 0 951 -- 66
2020-08-04 21:00:00 21.5 11 Nordeste 27 Este 0 950.7 -- 55
2020-08-04 20:00:00 23.5 14 Este 25 Este 0 950.6 -- 46
2020-08-04 19:00:00 24.4 11 Nordeste 27 Nordeste 0 950.6 -- 43
2020-08-04 18:00:00 24.5 9 Nordeste 30 Nordeste 0 950.9 -- 40
2020-08-04 17:00:00 25.3 9 Nordeste 26 Norte 0 951.3 -- 38
2020-08-04 16:00:00 24.1 9 Norte 28 Nordeste 0 951.9 -- 42
2020-08-04 15:00:00 23.6 11 Nordeste 24 Nordeste 0 952.5 -- 44
2020-08-04 14:00:00 22.6 7 Nordeste 20 Norte 0 952.8 -- 46
2020-08-04 13:00:00 21.4 6 Este 18 Nordeste 0 953.1 -- 54
2020-08-04 12:00:00 19.1 6 Nordeste 15 Este 0 953.4 -- 64
2020-08-04 11:00:00 17.7 4 Sudeste 10 Este 0 953.4 -- 67
2020-08-04 10:00:00 16 4 Sudeste 8 Sudeste 0 953.4 -- 70
2020-08-04 09:00:00 14.3 3 Noroeste 8 Nordeste 0 953.2 -- 77
2020-08-04 08:00:00 13.3 2 Este 6 Nordeste 0 952.9 -- 81
2020-08-04 07:00:00 12.7 2 Oeste 8 Norte 0 952.9 -- 83
2020-08-04 06:00:00 12.4 4 Nordeste 9 Nordeste 0 953.1 -- 85
2020-08-04 05:00:00 11.4 3 Sur 5 Sur 0 953.5 -- 88
2020-08-04 04:00:00 11.4 3 Nordeste 7 Nordeste 0 953.9 -- 87
2020-08-04 03:00:00 11.6 0 Calma 7 Este 0 953.8 -- 85
2020-08-04 02:00:00 12.7 3 Nordeste 9 Oeste 0 953.9 -- 83
2020-08-04 01:00:00 14.1 5 Oeste 10 Noroeste 0 953.8 -- 77
2020-08-04 00:00:00 15 3 Nordeste 11 Nordeste 0 953.7 -- 75
2020-08-03 23:00:00 15.9 4 Norte 21 Nordeste 0 953.2 -- 72
2020-08-03 22:00:00 17.3 11 Nordeste 33 Nordeste 0 952.7 -- 67
2020-08-03 21:00:00 19.5 12 Nordeste 31 Norte 0 952.1 -- 58
2020-08-03 20:00:00 22 15 Nordeste 32 Norte 0 951.5 -- 48
2020-08-03 19:00:00 22.9 13 Nordeste 33 Nordeste 0 951.4 -- 46
2020-08-03 18:00:00 23.7 14 Nordeste 38 Nordeste 0 951.3 -- 45
2020-08-03 17:00:00 24.3 11 Nordeste 30 Nordeste 0 951.5 -- 42
2020-08-03 16:00:00 23.7 11 Nordeste 33 Nordeste 0 951.9 -- 43
2020-08-03 15:00:00 24 11 Norte 37 Nordeste 0 952.2 -- 39
2020-08-03 14:00:00 23.3 6 Norte 20 Norte 0 952.4 -- 37
2020-08-03 13:00:00 22.5 6 Noroeste 19 Noroeste 0 952.7 -- 39
2020-08-03 12:00:00 20 5 Nordeste 15 Sudeste 0 953.1 -- 49
2020-08-03 11:00:00 18.8 6 Norte 14 Norte 0 953.4 -- 55
2020-08-03 10:00:00 16.7 3 Sudoeste 17 Noroeste 0 953.5 -- 71
2020-08-03 09:00:00 13.8 0 Calma 5 Este 0 953.1 -- 83
2020-08-03 08:00:00 10.6 0 Calma 6 Sudoeste 0 953.3 -- 92
2020-08-03 07:00:00 10.8 0 Calma 4 Nordeste 0 953.3 -- 90
2020-08-03 06:00:00 11.5 2 Nordeste 5 Oeste 0 953 -- 89
2020-08-03 05:00:00 12.3 4 Oeste 7 Sudoeste 0 953.1 -- 87
2020-08-03 04:00:00 13.1 3 Norte 7 Nordeste 0 953.4 -- 84
2020-08-03 03:00:00 14.9 2 Norte 17 Nordeste 0 953.5 -- 80
2020-08-03 02:00:00 15.4 7 Nordeste 19 Nordeste 0 953.8 -- 77
2020-08-03 01:00:00 15.5 8 Nordeste 24 Nordeste 0 954.5 -- 79
2020-08-03 00:00:00 16.1 8 Nordeste 20 Nordeste 0 954.7 -- 73
2020-08-02 23:00:00 16.5 5 Nordeste 20 Nordeste 0 954.6 -- 70
2020-08-02 22:00:00 17.1 9 Nordeste 24 Nordeste 0 954.6 -- 69
2020-08-02 21:00:00 18.2 10 Norte 23 Nordeste 0 954.1 -- 63
2020-08-02 20:00:00 19.2 10 Nordeste 27 Norte 0 953.9 -- 58
2020-08-02 19:00:00 19.3 12 Nordeste 27 Nordeste 0 953.6 -- 58
2020-08-02 18:00:00 20.3 14 Nordeste 32 Nordeste 0 953.9 -- 57
2020-08-02 17:00:00 20.7 14 Nordeste 36 Nordeste 0 954.3 -- 55
2020-08-02 16:00:00 20.7 14 Nordeste 36 Nordeste 0 954.9 -- 59
2020-08-02 15:00:00 20.5 12 Nordeste 27 Nordeste 0 954.8 -- 60
2020-08-02 14:00:00 20.8 13 Nordeste 33 Nordeste 0 954.9 -- 58
2020-08-02 13:00:00 20.5 12 Nordeste 29 Nordeste 0 955.3 -- 59
2020-08-02 12:00:00 19.2 12 Nordeste 27 Nordeste 0 955.3 -- 63
2020-08-02 11:00:00 18.2 9 Norte 24 Nordeste 0 955.1 -- 70
2020-08-02 10:00:00 17.3 9 Nordeste 21 Nordeste 0 955.1 -- 74
2020-08-02 09:00:00 16.7 6 Nordeste 13 Nordeste 0 954.9 -- 77
2020-08-02 08:00:00 16.5 3 Nordeste 10 Nordeste 0 954.8 -- 81
2020-08-02 07:00:00 16.6 5 Este 9 Este 0 954.7 -- 79
2020-08-02 06:00:00 16.7 3 Nordeste 15 Nordeste 0 954.7 -- 80
2020-08-02 05:00:00 16.8 8 Nordeste 17 Norte 0 954.6 -- 79
2020-08-02 04:00:00 17 4 Nordeste 10 Nordeste 0 954.7 -- 79
2020-08-02 03:00:00 17.1 3 Nordeste 9 Norte 0 955.2 -- 79
2020-08-02 02:00:00 17.1 4 Este 11 Norte 0 955.6 -- 79
2020-08-02 01:00:00 17.3 5 Nordeste 18 Nordeste 0 955.9 -- 78
2020-08-02 00:00:00 17.3 10 Nordeste 24 Nordeste 0 956 -- 78
2020-08-01 23:00:00 17.8 8 Nordeste 27 Nordeste 0 956 -- 76
2020-08-01 22:00:00 18.4 11 Nordeste 26 Nordeste 0 955.6 -- 77
2020-08-01 21:00:00 19.2 5 Nordeste 26 Nordeste 0 955.4 -- 74
2020-08-01 20:00:00 19.5 12 Nordeste 32 Nordeste 0 955.4 -- 74
2020-08-01 19:00:00 20.9 15 Nordeste 34 Nordeste 0 955.1 -- 67
2020-08-01 18:00:00 21.4 15 Nordeste 33 Nordeste 0 954.9 -- 65
2020-08-01 17:00:00 23.3 15 Nordeste 36 Este 0 954.7 -- 57
2020-08-01 16:00:00 25.1 15 Nordeste 30 Nordeste 0 954.5 -- 50
2020-08-01 15:00:00 25 12 Nordeste 32 Nordeste 0 954.4 -- 50
2020-08-01 14:00:00 23.5 8 Nordeste 22 Norte 0 954.6 -- 52
2020-08-01 13:00:00 22.1 8 Nordeste 19 Este 0 954.7 -- 58
2020-08-01 12:00:00 22.1 9 Nordeste 19 Nordeste 0 954.8 -- 55
2020-08-01 11:00:00 21.2 4 Nordeste 14 Norte 0 954.4 -- 57
2020-08-01 10:00:00 19.9 6 Este 13 Este 0 954.2 -- 62
2020-08-01 09:00:00 17.5 5 Norte 16 Nordeste 0 954.1 -- 77
2020-08-01 08:00:00 15.4 4 Norte 9 Nordeste 0 953.9 -- 88
2020-08-01 07:00:00 15.7 3 Nordeste 6 Norte 0 953.6 -- 87
2020-08-01 06:00:00 16.9 3 Nordeste 6 Nordeste 0 953.2 -- 85
2020-08-01 05:00:00 18 3 Norte 11 Norte 0 953.3 -- 82
2020-08-01 04:00:00 18.8 6 Nordeste 13 Norte 0 953.2 -- 81
2020-08-01 03:00:00 18.9 5 Norte 10 Norte 0 953.5 -- 82
2020-08-01 02:00:00 19.6 5 Nordeste 11 Norte 0 953.6 -- 81
2020-08-01 01:00:00 19.8 4 Nordeste 14 Este 0 953.6 -- 81
2020-08-01 00:00:00 19.9 4 Nordeste 14 Nordeste 0 953.4 -- 82
2020-07-31 23:00:00 20.1 7 Nordeste 24 Nordeste 0 952.7 -- 81
2020-07-31 22:00:00 20.7 11 Norte 30 Norte 0 951.6 -- 80
2020-07-31 21:00:00 23.2 16 Norte 31 Norte 0 950.6 -- 69
2020-07-31 20:00:00 27.6 11 Norte 35 Norte 0 949.5 -- 53
2020-07-31 19:00:00 31.5 17 Norte 36 Nordeste 0 949 -- 41
2020-07-31 18:00:00 34 14 Nordeste 33 Nordeste 0 948.9 -- 34
2020-07-31 17:00:00 35.2 13 Nordeste 28 Nordeste 0 948.7 -- 29
2020-07-31 16:00:00 34.7 8 Noroeste 24 Noroeste 0 949 -- 22
2020-07-31 15:00:00 34.4 7 Norte 18 Norte 0 949.3 -- 24
2020-07-31 14:00:00 33.3 4 Este 17 Este 0 949.8 -- 29
2020-07-31 13:00:00 30.3 3 Sudeste 13 Sur 0 950.2 -- 36
2020-07-31 12:00:00 27.5 4 Sudeste 13 Sur 0 950.4 -- 43
2020-07-31 11:00:00 23.5 2 Oeste 9 Oeste 0 950.4 -- 57
2020-07-31 10:00:00 21.4 3 Nordeste 6 Este 0 950.2 -- 65
2020-07-31 09:00:00 18.4 0 Calma 6 Sur 0 950 -- 77
2020-07-31 08:00:00 15.9 2 Sudoeste 7 Sur 0 949.7 -- 86
2020-07-31 07:00:00 15.8 3 Sudeste 6 Nordeste 0 949.1 -- 82
2020-07-31 06:00:00 16.9 2 Nordeste 9 Oeste 0 948.8 -- 80
2020-07-31 05:00:00 18 5 Norte 9 Norte 0 948.6 -- 76
2020-07-31 04:00:00 18 3 Norte 6 Sudoeste 0 948.4 -- 78
2020-07-31 03:00:00 19.6 2 Noroeste 9 Noroeste 0 949 -- 70
2020-07-31 02:00:00 20.5 3 Sudoeste 10 Sudeste 0 949.7 -- 70
2020-07-31 01:00:00 22.5 3 Oeste 17 Este 0 949.4 -- 59
2020-07-31 00:00:00 23.6 6 Sudoeste 23 Sudeste 0 949.4 -- 54
2020-07-30 23:00:00 24.6 13 Sur 40 Sudeste 0 949.7 -- 47
2020-07-30 22:00:00 23.8 14 Sur 47 Este 0.2 948.5 -- 54
2020-07-30 21:00:00 25 10 Sudeste 28 Sudeste 0 948.5 -- 49
2020-07-30 20:00:00 26.4 10 Este 38 Sudoeste 0.2 947.6 -- 48
2020-07-30 19:00:00 32 3 Oeste 17 Sudoeste 0 947.2 -- 27
2020-07-30 18:00:00 30.9 6 Noroeste 45 Sur 0.2 948 -- 27
2020-07-30 17:00:00 32.2 23 Sur 60 Sur 0 947.9 -- 20
2020-07-30 16:00:00 30.3 23 Sudeste 64 Sur 0 947.5 -- 28
2020-07-30 15:00:00 36.2 14 Este 31 Sudeste 0 946.7 -- 24
2020-07-30 14:00:00 34.6 13 Sudeste 31 Sudeste 0 947.5 -- 27
2020-07-30 13:00:00 32.2 13 Sudeste 36 Sur 0 948.3 -- 32
2020-07-30 12:00:00 29.4 10 Sudeste 23 Sur 0 949 -- 40
2020-07-30 11:00:00 24.5 3 Sur 8 Sudoeste 0 949.4 -- 58
2020-07-30 10:00:00 20.3 2 Norte 6 Sudeste 0 949.7 -- 73
2020-07-30 09:00:00 17.1 3 Nordeste 7 Nordeste 0 949.8 -- 83
2020-07-30 08:00:00 14.2 2 Nordeste 5 Nordeste 0 949.7 -- 91
2020-07-30 07:00:00 14.2 2 Norte 4 Norte 0 949.4 -- 90
2020-07-30 06:00:00 14.7 3 Nordeste 6 Nordeste 0 949.3 -- 90
2020-07-30 05:00:00 15.2 2 Nordeste 7 Norte 0 949.3 -- 89
2020-07-30 04:00:00 16 3 Nordeste 6 Nordeste 0 949.5 -- 89
2020-07-30 03:00:00 16.7 2 Nordeste 7 Norte 0 949.6 -- 86
2020-07-30 02:00:00 17.8 3 Nordeste 12 Norte 0 949.8 -- 84
2020-07-30 01:00:00 18.3 4 Noroeste 9 Norte 0 950.2 -- 83
2020-07-30 00:00:00 18.7 3 Noroeste 17 Noroeste 0 950.3 -- 81
2020-07-29 23:00:00 19.4 8 Noroeste 17 Norte 0 950.1 -- 78
2020-07-29 22:00:00 21.5 5 Norte 22 Norte 0 949.6 -- 70
2020-07-29 21:00:00 23.4 10 Norte 28 Norte 0 949.3 -- 63
2020-07-29 20:00:00 25.6 15 Norte 29 Nordeste 0 949 -- 56
2020-07-29 19:00:00 27.8 13 Norte 29 Norte 0 949 -- 50
2020-07-29 18:00:00 28.5 14 Norte 27 Nordeste 0 949.4 -- 47
2020-07-29 17:00:00 29 12 Nordeste 27 Nordeste 0 949.8 -- 46
2020-07-29 16:00:00 28.8 7 Norte 21 Norte 0 950.2 -- 45
2020-07-29 15:00:00 27.5 6 Oeste 15 Oeste 0 950.8 -- 49
2020-07-29 14:00:00 25 5 Oeste 13 Oeste 0 951.5 -- 55
2020-07-29 13:00:00 23 6 Este 14 Sudeste 0 952.2 -- 59
2020-07-29 12:00:00 19.9 2 Norte 14 Nordeste 0 952.6 -- 70
2020-07-29 11:00:00 18.7 5 Nordeste 14 Este 0 952.9 -- 75
2020-07-29 10:00:00 17.9 5 Este 14 Norte 0 953 -- 78
2020-07-29 09:00:00 17.3 5 Nordeste 15 Nordeste 0 952.9 -- 79
2020-07-29 08:00:00 16.9 5 Nordeste 12 Nordeste 0 952.9 -- 82
2020-07-29 07:00:00 16.8 5 Nordeste 14 Este 0 952.9 -- 83
2020-07-29 06:00:00 16.8 8 Este 13 Este 0 953 -- 82
2020-07-29 05:00:00 16.9 8 Este 14 Este 0 953.2 -- 80
2020-07-29 04:00:00 16.8 6 Este 13 Nordeste 0 953.5 -- 86
2020-07-29 03:00:00 17.2 6 Este 13 Este 0 953.8 -- 82
2020-07-29 02:00:00 17.3 5 Norte 18 Nordeste 0 954 -- 83
2020-07-29 01:00:00 17.4 5 Norte 31 Nordeste 0 954.1 -- 84
2020-07-29 00:00:00 17.5 18 Nordeste 35 Norte 0 954 -- 84
2020-07-28 23:00:00 18.4 14 Nordeste 33 Nordeste 0 954.1 -- 81
2020-07-28 22:00:00 18.5 12 Nordeste 30 Este 0 953.8 -- 81
2020-07-28 21:00:00 18.9 15 Nordeste 34 Nordeste 0 953.7 -- 82
2020-07-28 20:00:00 19.3 15 Nordeste 33 Nordeste 0 953.5 -- 83
2020-07-28 19:00:00 20.3 15 Nordeste 35 Nordeste 0 953.5 -- 80
2020-07-28 18:00:00 22.7 15 Nordeste 35 Norte 0 953 -- 67
2020-07-28 17:00:00 25.5 14 Nordeste 32 Nordeste 0 952.6 -- 55
2020-07-28 16:00:00 24.3 12 Nordeste 27 Norte 0 952.7 -- 57
2020-07-28 15:00:00 23.7 13 Nordeste 26 Nordeste 0 952.7 -- 60
2020-07-28 14:00:00 24.6 9 Nordeste 24 Este 0 952.6 -- 55
2020-07-28 13:00:00 23.3 6 Nordeste 18 Este 0 952.9 -- 60
2020-07-28 12:00:00 20.6 7 Nordeste 14 Nordeste 0 953.2 -- 72
2020-07-28 11:00:00 19.3 3 Noroeste 8 Norte 0 953.2 -- 76
2020-07-28 10:00:00 17.6 2 Noroeste 6 Oeste 0 952.9 -- 79
2020-07-28 09:00:00 16 3 Noroeste 7 Noroeste 0 952.9 -- 84
2020-07-28 08:00:00 14.1 2 Oeste 8 Norte 0 952.5 -- 89
2020-07-28 07:00:00 14 2 Nordeste 5 Norte 0 952.2 -- 89
2020-07-28 06:00:00 14.5 3 Este 8 Nordeste 0 952 -- 88
2020-07-28 05:00:00 15 4 Nordeste 6 Nordeste 0 952 -- 85
2020-07-28 04:00:00 15.7 0 Calma 5 Nordeste 0 952.1 -- 83
2020-07-28 03:00:00 16.5 0 Calma 7 Nordeste 0 952 -- 79
2020-07-28 02:00:00 17.5 0 Calma 5 Norte 0 952.5 -- 76
2020-07-28 01:00:00 18.4 2 Noroeste 8 Norte 0 952.5 -- 73
2020-07-28 00:00:00 19.4 3 Norte 16 Nordeste 0 952.5 -- 67
2020-07-27 23:00:00 20.5 7 Nordeste 15 Nordeste 0 952.2 -- 62
2020-07-27 22:00:00 21.9 7 Nordeste 28 Norte 0 951.6 -- 56
2020-07-27 21:00:00 23.2 16 Nordeste 39 Nordeste 0 950.9 -- 58
2020-07-27 20:00:00 25.3 14 Norte 37 Norte 0 949.8 -- 55
2020-07-27 19:00:00 27.5 17 Norte 39 Norte 0 949.1 -- 54
2020-07-27 18:00:00 30.1 20 Norte 45 Norte 0 948.4 -- 47
2020-07-27 17:00:00 34.2 15 Norte 36 Nordeste 0 947.7 -- 35
2020-07-27 16:00:00 37.3 6 Nordeste 23 Sudeste 0 947.8 -- 21
2020-07-27 15:00:00 35.4 9 Sudeste 23 Sudeste 0 948.3 -- 26
2020-07-27 14:00:00 32.9 7 Sur 17 Sur 0 949.3 -- 32
2020-07-27 13:00:00 29.1 3 Sur 10 Noroeste 0 949.8 -- 44
2020-07-27 12:00:00 24.4 4 Norte 10 Sudeste 0 950.5 -- 59
2020-07-27 09:00:00 14.9 0 Calma 8 Nordeste 0 950.7 0.7 94
2020-07-27 08:00:00 13.8 3 Nordeste 6 Nordeste 0 950.6 0.6 92
2020-07-27 07:00:00 13 0 Calma 5 Nordeste 0 950.2 0.1 91
2020-07-27 06:00:00 13.5 2 Norte 5 Nordeste 0 950 -0.4 90
2020-07-27 05:00:00 14.2 0 Calma 4 Norte 0 950 -0.7 89
2020-07-27 04:00:00 15.2 0 Calma 5 Norte 0 950.1 -0.7 88
2020-07-27 03:00:00 16.5 3 Nordeste 6 Noroeste 0 950.4 -0.5 88
2020-07-27 02:00:00 17.9 3 Noroeste 9 Norte 0 950.7 0.1 86
2020-07-27 01:00:00 18.6 4 Norte 13 Norte 0 950.8 0.8 83
2020-07-27 00:00:00 19.5 3 Noroeste 15 Norte 0 950.9 1.2 79
2020-07-26 23:00:00 20.9 7 Norte 19 Norte 0 950.6 1.2 72
2020-07-26 22:00:00 22.3 8 Norte 20 Norte 0 950 0.6 67
2020-07-26 21:00:00 24.4 10 Nordeste 29 Nordeste 0 949.7 0.1 59
2020-07-26 20:00:00 25.7 16 Nordeste 35 Nordeste 0 949.4 -0.6 54
2020-07-26 19:00:00 27.3 17 Nordeste 37 Nordeste 0 949.4 -1.3 48
2020-07-26 18:00:00 29 15 Nordeste 36 Nordeste 0 949.6 -1.4 42
2020-07-26 17:00:00 29.9 16 Nordeste 36 Nordeste 0 950 -1.5 36
2020-07-26 16:00:00 29.1 13 Norte 31 Nordeste 0 950.7 -1.4 39
2020-07-26 15:00:00 28.9 8 Oeste 21 Norte 0 951 -1.3 36
2020-07-26 14:00:00 27.5 7 Oeste 16 Oeste 0 951.5 -1.1 39
2020-07-26 13:00:00 26.1 5 Nordeste 14 Sudoeste 0 952.1 -0.8 43
2020-07-26 12:00:00 23.9 4 Sudoeste 17 Sudeste 0 952.3 -0.4 50
2020-07-26 11:00:00 21.6 3 Noroeste 8 Nordeste 0 952.6 0.4 58
2020-07-26 10:00:00 18.9 2 Oeste 18 Este 0 952.9 -- 66
2020-07-26 09:00:00 15.6 2 Nordeste 6 Este 0 952.7 -- 77
2020-07-26 08:00:00 11.9 3 Nordeste 6 Nordeste 0 952.2 -- 90
2020-07-26 07:00:00 11.8 0 Calma 7 Norte 0 952 -- 89
2020-07-26 06:00:00 12.1 2 Nordeste 8 Nordeste 0 951.5 -- 89
2020-07-26 05:00:00 12.8 3 Nordeste 6 Nordeste 0 951.5 -- 88
2020-07-26 04:00:00 13.5 3 Norte 7 Nordeste 0 951.2 -- 85
2020-07-26 03:00:00 14.3 4 Nordeste -- -- 0 951.2 -- 83
2020-07-26 02:00:00 15.4 0 Calma 6 Sur 0 951.6 -- 80
2020-07-26 01:00:00 16.5 0 Calma 9 Oeste 0 951.4 -- 77
2020-07-26 00:00:00 18.1 2 Sudoeste 12 Nordeste 0 951.4 -- 69
2020-07-25 23:00:00 19.1 6 Nordeste 22 Nordeste 0 951 -- 64
2020-07-25 22:00:00 20.6 12 Nordeste 34 Nordeste 0 950.2 -- 58
2020-07-25 21:00:00 22.8 13 Nordeste 34 Nordeste 0 949.4 -- 52
2020-07-25 20:00:00 24.5 14 Nordeste 42 Norte 0 948.9 -- 49
2020-07-25 19:00:00 26.8 15 Norte 37 Nordeste 0 948.3 -- 45
2020-07-25 18:00:00 27.8 19 Norte 44 Norte 0 947.7 -- 43
2020-07-25 17:00:00 31.1 18 Nordeste 36 Nordeste 0 947.3 -- 32
2020-07-25 16:00:00 31.3 6 Norte 17 Norte 0 947.8 -- 24
2020-07-25 15:00:00 30 3 Noroeste 14 Norte 0 948.8 -- 27
2020-07-25 14:00:00 26.8 5 Oeste 15 Noroeste 0 949.5 -- 36
2020-07-25 13:00:00 23.5 4 Sudoeste 12 Sudeste 0 950.1 -- 48
2020-07-25 12:00:00 19.9 4 Sur 14 Sur 0 951 -- 62
2020-07-25 11:00:00 16.2 4 Sudeste 13 Este 0 951.4 -- 76
2020-07-25 10:00:00 13.6 4 Sur 10 Sur 0 951.9 -- 87
2020-07-25 09:00:00 12.9 0 Calma 5 Nordeste 0 951.8 -- 91
2020-07-25 08:00:00 11.7 2 Nordeste 6 Norte 0 951.8 -- 93
2020-07-25 07:00:00 11 3 Nordeste 8 Norte 0 951.9 -- 93
2020-07-25 06:00:00 10.6 4 Nordeste 8 Norte 0 951.9 -- 91
2020-07-25 05:00:00 11.3 0 Calma 4 Este 0 952.1 -- 89
2020-07-25 04:00:00 12.3 2 Nordeste 4 Nordeste 0 952.6 -- 88
2020-07-25 03:00:00 13.8 4 Este 13 Norte 0 953 -- 85
2020-07-25 02:00:00 14.5 3 Norte 12 Norte 0 953.3 -- 84
2020-07-25 01:00:00 15.3 6 Nordeste 11 Nordeste 0 953.6 -- 82
2020-07-25 00:00:00 15.7 3 Nordeste 13 Nordeste 0 953.6 -- 80
2020-07-24 23:00:00 16.6 8 Nordeste 29 Nordeste 0 953.3 -- 76
2020-07-24 22:00:00 17.9 10 Nordeste 34 Nordeste 0 952.5 -- 71
2020-07-24 21:00:00 20.2 14 Nordeste 31 Nordeste 0 952.2 -- 60
2020-07-24 20:00:00 22.2 14 Norte 33 Norte 0 952 -- 52
2020-07-24 19:00:00 23.6 15 Nordeste 32 Nordeste 0 951.8 -- 50
2020-07-24 18:00:00 24.7 12 Nordeste 32 Nordeste 0 951.9 -- 46
2020-07-24 17:00:00 24.9 13 Nordeste 26 Nordeste 0 952.1 -- 43
2020-07-24 16:00:00 25.3 10 Nordeste 29 Nordeste 0 952.3 -- 41
2020-07-24 15:00:00 24.7 8 Nordeste 27 Norte 0 952.5 -- 42
2020-07-24 14:00:00 23.1 9 Norte 22 Este 0 952.9 -- 47
2020-07-24 13:00:00 22.1 6 Nordeste 20 Nordeste 0 953 -- 49
2020-07-24 12:00:00 21.2 8 Norte 25 Norte 0 953 -- 55
2020-07-24 11:00:00 20.7 9 Nordeste 20 Norte 0 953 -- 60
2020-07-24 10:00:00 19 8 Norte 17 Norte 0 952.8 -- 70
2020-07-24 09:00:00 18.2 4 Norte 9 Norte 0 952.4 -- 75
2020-07-24 08:00:00 16.9 4 Oeste 7 Sudoeste 0 952.4 -- 80
2020-07-24 07:00:00 16.8 3 Oeste 7 Oeste 0 952.2 -- 80
2020-07-24 06:00:00 17.1 3 Oeste 8 Noroeste 0 952.1 -- 80
2020-07-24 05:00:00 17.2 4 Noroeste 8 Noroeste 0 952.3 -- 80
2020-07-24 04:00:00 17.6 2 Nordeste 6 Norte 0 952.5 -- 80
2020-07-24 03:00:00 17.4 0 Calma 7 Noroeste 0 952.7 -- 73
2020-07-24 02:00:00 18.2 3 Norte 8 Norte 0 952.9 -- 69
2020-07-24 01:00:00 18.7 5 Este 12 Nordeste 0 953.1 -- 71
2020-07-24 00:00:00 18.8 5 Norte 19 Nordeste 0 953.1 -- 78
2020-07-23 23:00:00 19.1 7 Nordeste 22 Nordeste 0 952.9 -- 77
2020-07-23 22:00:00 19.6 14 Nordeste 27 Nordeste 0 952.3 -- 73
2020-07-23 21:00:00 21.6 14 Nordeste 37 Nordeste 0 951.9 -- 66
2020-07-23 20:00:00 23 19 Nordeste 39 Nordeste 0 951.6 -- 59
2020-07-23 19:00:00 23.7 17 Nordeste 36 Nordeste 0 951.4 -- 58
2020-07-23 18:00:00 25.5 16 Nordeste 35 Nordeste 0 951.3 -- 54
2020-07-23 17:00:00 26.8 15 Norte 35 Norte 0 951.3 -- 50
2020-07-23 16:00:00 27.7 14 Nordeste 31 Este 0 951.5 -- 47
2020-07-23 15:00:00 27.1 15 Nordeste 34 Norte 0 952.2 -- 48
2020-07-23 14:00:00 26.5 14 Nordeste 29 Nordeste 0 952.5 -- 52
2020-07-23 13:00:00 25.8 9 Sur 20 Sudeste 0 952.6 -- 54
2020-07-23 12:00:00 22.3 4 Sudeste 10 Este 0 952.9 -- 67
2020-07-23 11:00:00 20.7 2 Oeste 8 Sur 0 953 -- 72
2020-07-23 10:00:00 19.1 3 Oeste 8 Oeste 0 953.2 -- 79
2020-07-23 09:00:00 18.1 2 Noroeste 9 Norte 0 953.2 -- 85
2020-07-23 08:00:00 17.5 3 Nordeste 7 Norte 0 953 -- 89
2020-07-23 07:00:00 17.1 2 Nordeste 9 Norte 0 953.1 -- 90
2020-07-23 06:00:00 17.1 4 Norte 13 Norte 0 953.1 -- 91
2020-07-23 05:00:00 16.9 4 Nordeste 11 Nordeste 0 953.4 -- 89
2020-07-23 04:00:00 17.5 4 Nordeste 8 Nordeste 0 953.5 -- 88
2020-07-23 03:00:00 18.5 2 Norte 5 Este 0 953.8 -- 84
2020-07-23 02:00:00 18.7 2 Nordeste 5 Nordeste 0 954.3 -- 85
2020-07-23 01:00:00 18.9 0 Calma 8 Norte 0 954.5 -- 83
2020-07-23 00:00:00 19.3 4 Norte 13 Norte 0 954.3 -- 83
2020-07-22 23:00:00 19.4 8 Nordeste 21 Norte 0 954.2 -- 81
2020-07-22 22:00:00 20.5 9 Norte 27 Nordeste 0 953.4 -- 77
2020-07-22 21:00:00 23.6 8 Nordeste 36 Nordeste 0 952.5 -- 65
2020-07-22 20:00:00 25.9 12 Norte 30 Nordeste 0 951.7 -- 57
2020-07-22 19:00:00 27.1 17 Norte 32 Nordeste 0 951.7 -- 53
2020-07-22 18:00:00 29.7 14 Nordeste 34 Nordeste 0 951.4 -- 43
2020-07-22 17:00:00 31.1 14 Nordeste 33 Nordeste 0 951.5 -- 40
2020-07-22 16:00:00 31.4 10 Nordeste 21 Nordeste 0 951.7 -- 36
2020-07-22 15:00:00 31.3 6 Sudeste 24 Sudeste 0 952.1 -- 32
2020-07-22 14:00:00 29.6 9 Sur 22 Sudeste 0 952.6 -- 42
2020-07-22 13:00:00 27.4 4 Oeste 16 Norte 0 952.9 -- 47
2020-07-22 12:00:00 25 4 Norte 10 Sudeste 0 953.4 -- 57
2020-07-22 11:00:00 22.7 5 Sur 18 Sudeste 0 954 -- 67
2020-07-22 10:00:00 20.3 2 Este 10 Noroeste 0 953.9 -- 81
2020-07-22 09:00:00 18.4 5 Norte 11 Noroeste 0 953 -- 89
2020-07-22 08:00:00 17.6 3 Noroeste 7 Nordeste 0 953.6 -- 93
2020-07-22 07:00:00 17.6 2 Sur 4 Oeste 0 953.8 -- 93
2020-07-22 06:00:00 17.4 4 Noroeste 8 Oeste 0 953 -- 92
2020-07-22 05:00:00 17.6 2 Nordeste 5 Norte 0 952.7 -- 93
2020-07-22 04:00:00 17.8 3 Sudeste 4 Oeste 0 953 -- 92
2020-07-22 03:00:00 18 0 Calma 7 Nordeste 0 953.4 -- 92
2020-07-22 02:00:00 18.4 3 Norte 8 Norte 0 954.1 -- 92
2020-07-22 01:00:00 18.5 4 Sudoeste 7 Noroeste 0 954.9 -- 91
2020-07-22 00:00:00 19.2 4 Este 14 Norte 0.2 955.1 -- 90
2020-07-21 23:00:00 19.5 4 Oeste 13 Nordeste 0.2 954.5 -- 90
2020-07-21 22:00:00 19.6 7 Nordeste 18 Nordeste 1.2 954.3 -- 85
2020-07-21 21:00:00 20.7 5 Noroeste 33 Norte 0.2 954.4 -- 78
2020-07-21 20:00:00 21.6 8 Noroeste 19 Nordeste 0 953.1 -- 71
2020-07-21 19:00:00 22.6 10 Norte 37 Nordeste 0 952.5 -- 64
2020-07-21 18:00:00 24.5 18 Nordeste 40 Nordeste 0 952.5 -- 57
2020-07-21 17:00:00 29.1 19 Nordeste 40 Nordeste 0 951.3 -- 42
2020-07-21 16:00:00 30.1 12 Nordeste 28 Nordeste 0 951.5 -- 37
2020-07-21 15:00:00 29.1 10 Norte 23 Norte 0 952 -- 37
2020-07-21 14:00:00 27.2 4 Norte 12 Sudoeste 0 952.5 -- 41
2020-07-21 13:00:00 25 7 Noroeste 15 Noroeste 0 952.8 -- 49
2020-07-21 12:00:00 22.9 3 Noroeste 9 Este 0 953 -- 53
2020-07-21 11:00:00 21.4 3 Sudeste 7 Sur 0 953.3 -- 54
2020-07-21 10:00:00 18.4 2 Nordeste 8 Norte 0 953.3 -- 66
2020-07-21 09:00:00 15.7 4 Este 6 Este 0 953.3 -- 80
2020-07-21 08:00:00 12.8 2 Nordeste 8 Norte 0 953.2 -- 89
2020-07-21 07:00:00 12.6 4 Norte 8 Nordeste 0 953 -- 90
2020-07-21 06:00:00 12.8 2 Norte 6 Nordeste 0 952.9 -- 90
2020-07-21 05:00:00 13.6 0 Calma 6 Norte 0 952.9 -- 89
2020-07-21 04:00:00 14.3 2 Nordeste 5 Nordeste 0 953.4 -- 87
2020-07-21 03:00:00 15.2 2 Norte 8 Norte 0 953.6 -- 85
2020-07-21 02:00:00 16.3 3 Norte 7 Nordeste 0 953.8 -- 82
2020-07-21 01:00:00 16.8 3 Noroeste 13 Nordeste 0 954 -- 79
2020-07-21 00:00:00 17.5 4 Norte 11 Norte 0 953.9 -- 79
2020-07-20 23:00:00 18.2 5 Norte 16 Norte 0 953.7 -- 77
2020-07-20 22:00:00 19.4 8 Norte 27 Nordeste 0 952.9 -- 72
2020-07-20 21:00:00 20.9 13 Norte 32 Norte 0 952.4 -- 66
2020-07-20 20:00:00 22.7 15 Norte 39 Norte 0 951.7 -- 61
2020-07-20 19:00:00 24.3 17 Norte 37 Norte 0 951.2 -- 58
2020-07-20 18:00:00 25.9 18 Norte 36 Norte 0 951.1 -- 52
2020-07-20 17:00:00 27.5 16 Norte 36 Norte 0 950.9 -- 44
2020-07-20 16:00:00 27.9 14 Norte 35 Norte 0 950.8 -- 40
2020-07-20 15:00:00 28.3 12 Norte 31 Norte 0 950.9 -- 37
2020-07-20 14:00:00 27.8 12 Nordeste 29 Nordeste 0 951.1 -- 36
2020-07-20 13:00:00 26.5 12 Norte 29 Nordeste 0 951.5 -- 38
2020-07-20 12:00:00 25.6 11 Nordeste 31 Nordeste 0 951.7 -- 39
2020-07-20 11:00:00 23 6 Norte 13 Norte 0 951.6 -- 48
2020-07-20 10:00:00 20.3 5 Oeste 10 Oeste 0 951.5 -- 60
2020-07-20 09:00:00 16.8 2 Norte 8 Norte 0 951.5 -- 75
2020-07-20 08:00:00 13.6 3 Norte 8 Nordeste 0 951.5 -- 86
2020-07-20 07:00:00 13 2 Nordeste 5 Nordeste 0 951.4 -- 87
2020-07-20 06:00:00 13.9 0 Calma 7 Nordeste 0 951.3 -- 85
2020-07-20 05:00:00 14.5 0 Calma 4 Nordeste 0 951.4 -- 85
2020-07-20 04:00:00 15.3 0 Calma 5 Norte 0 951.4 -- 82
2020-07-20 03:00:00 16.2 0 Calma 6 Nordeste 0 951.6 -- 81
2020-07-20 02:00:00 17.2 3 Nordeste 6 Nordeste 0 951.5 -- 80
2020-07-20 01:00:00 18.5 0 Calma 8 Nordeste 0 951.6 -- 78
2020-07-20 00:00:00 19.6 5 Nordeste 12 Nordeste 0 951.6 -- 75
2020-07-19 23:00:00 20.5 6 Nordeste 15 Norte 0 951.1 -- 72
2020-07-19 22:00:00 21.8 8 Nordeste 27 Norte 0 950 -- 70
2020-07-19 21:00:00 23.9 10 Norte 31 Norte 0 949.1 -- 63
2020-07-19 20:00:00 26.4 13 Norte 34 Norte 0 948.4 -- 55
2020-07-19 19:00:00 29 13 Norte 40 Nordeste 0 947.9 -- 47
2020-07-19 18:00:00 30.8 17 Norte 43 Nordeste 0 947.5 -- 39
2020-07-19 17:00:00 33.4 18 Nordeste 42 Nordeste 0 947.2 -- 30
2020-07-19 16:00:00 36.1 6 Sudeste 23 Sudeste 0 947.2 -- 18
2020-07-19 15:00:00 34.2 5 Este 15 Este 0 947.8 -- 24
2020-07-19 14:00:00 32 4 Sudeste 18 Este 0 948.5 -- 31
2020-07-19 13:00:00 29 4 Sudoeste 17 Sudeste 0 949 -- 39
2020-07-19 12:00:00 26.4 8 Sur 16 Sur 0 949.3 -0.6 46
2020-07-19 11:00:00 22.9 2 Este 9 Sudeste 0 949.7 -0.1 55
2020-07-19 10:00:00 19.1 2 Este 9 Noroeste 0 950 0.4 67
2020-07-19 09:00:00 15.2 2 Nordeste 7 Nordeste 0 949.9 0.1 77
2020-07-19 08:00:00 11.8 2 Este 7 Nordeste 0 949.8 -- 90
2020-07-19 07:00:00 11.2 2 Nordeste 6 Nordeste 0 949.6 -- 90
2020-07-19 06:00:00 11.8 3 Nordeste 6 Nordeste 0 949.8 -- 90
2020-07-19 05:00:00 12.5 3 Nordeste 7 Nordeste 0 950 -- 89
2020-07-19 04:00:00 13.5 0 Calma 8 Nordeste 0 950.2 -- 88
2020-07-19 03:00:00 14.4 2 Este 6 Este 0 950.4 -- 84
2020-07-19 02:00:00 16 2 Este 9 Noroeste 0 950.6 -- 82
2020-07-19 01:00:00 17.9 4 Norte 17 Norte 0 950.7 -- 78
2020-07-19 00:00:00 18.9 8 Norte 19 Norte 0 950.5 -- 76
2020-07-18 23:00:00 20.6 8 Norte 23 Nordeste 0 950.3 -- 68
2020-07-18 22:00:00 23.2 8 Nordeste 24 Nordeste 0 949.4 -- 57
2020-07-18 21:00:00 26.4 14 Nordeste 30 Nordeste 0 948.8 -- 46
2020-07-18 20:00:00 28.3 10 Norte 27 Nordeste 0 948.8 -- 41
2020-07-18 19:00:00 29.4 12 Norte 29 Norte 0 948.8 -- 37
2020-07-18 18:00:00 31.2 10 Nordeste 25 Norte 0 949 -- 30
2020-07-18 17:00:00 30.6 10 Norte 24 Norte 0 949.3 -- 30
2020-07-18 16:00:00 30.3 11 Norte 23 Nordeste 0 949.6 -- 30
2020-07-18 15:00:00 29.2 5 Norte 17 Norte 0 950.2 -- 31
2020-07-18 14:00:00 27.9 5 Sur 14 Sur 0 950.7 -- 36
2020-07-18 13:00:00 25.7 6 Sudoeste 18 Sur 0 951.2 -- 42
2020-07-18 12:00:00 24 5 Sudoeste 15 Sudoeste 0 951.8 -- 47
2020-07-18 11:00:00 21.5 5 Sudoeste 15 Sur 0 952.2 -- 58
2020-07-18 10:00:00 19.2 4 Norte 11 Nordeste 0 952.8 -- 66
2020-07-18 09:00:00 16.8 4 Oeste 8 Noroeste 0 953.1 -- 76
2020-07-18 08:00:00 14 3 Sudoeste 6 Norte 0 953.3 -- 86
2020-07-18 07:00:00 13.5 4 Norte 9 Norte 0 953.4 -- 87
2020-07-18 06:00:00 15 3 Nordeste 7 Noroeste 0 953.3 -- 81
2020-07-18 05:00:00 15.3 3 Norte 8 Norte 0 953.7 -- 80
2020-07-18 04:00:00 15.1 0 Calma 8 Nordeste 0 954.3 -- 82
2020-07-18 03:00:00 14.6 3 Nordeste 9 Norte 0 954.6 -- 83
2020-07-18 02:00:00 14.3 3 Nordeste 8 Nordeste 0 954.9 -- 83
2020-07-18 01:00:00 15.4 3 Nordeste 7 Nordeste 0 955.3 -- 81
2020-07-18 00:00:00 15.6 3 Noroeste 9 Nordeste 0 955.3 -- 79
2020-07-17 23:00:00 16.5 4 Norte 11 Nordeste 0 955 -- 74
2020-07-17 22:00:00 18.1 7 Nordeste 26 Nordeste 0 954.5 -- 65
2020-07-17 21:00:00 20.6 8 Nordeste 29 Este 0 954.4 -- 54
2020-07-17 20:00:00 21.7 11 Nordeste 26 Nordeste 0 954.2 -- 50
2020-07-17 19:00:00 22 14 Nordeste 34 Este 0 954.2 -- 48
2020-07-17 18:00:00 22.9 13 Nordeste 36 Norte 0 954.5 -- 46
2020-07-17 17:00:00 22.8 17 Nordeste 33 Nordeste 0 954.5 -- 46
2020-07-17 16:00:00 23.6 13 Nordeste 30 Norte 0 954.4 -- 43
2020-07-17 15:00:00 23.3 10 Nordeste 26 Norte 0 954.6 -- 43
2020-07-17 14:00:00 22.3 5 Norte 23 Nordeste 0 954.9 -- 46
2020-07-17 13:00:00 21 10 Nordeste 21 Nordeste 0 955.3 -- 49
2020-07-17 12:00:00 20.3 7 Nordeste 21 Nordeste 0 955.5 -- 52
2020-07-17 11:00:00 17.1 5 Norte 16 Norte 0 955.8 -- 64
2020-07-17 10:00:00 15.6 7 Norte 17 Norte 0 956.1 -- 71
2020-07-17 09:00:00 15.1 3 Nordeste 8 Norte 0 956.1 -- 70
2020-07-17 08:00:00 14.3 3 Norte 8 Norte 0 956 -- 74
2020-07-17 07:00:00 14.4 3 Norte 8 Norte 0 955.7 -- 73
2020-07-17 06:00:00 14.4 4 Este 10 Este 0 955.6 -- 74
2020-07-17 05:00:00 14.6 6 Este 13 Este 0 955.7 -- 75
2020-07-17 04:00:00 14.6 0 Calma 12 Este 0 956 -- 76
2020-07-17 03:00:00 14.3 3 Nordeste 8 Este 0 956 -- 79
2020-07-17 02:00:00 14 3 Nordeste 8 Nordeste 0 956.3 -- 81
2020-07-17 01:00:00 14.4 3 Nordeste 6 Norte 0 956.6 -- 81
2020-07-17 00:00:00 14.5 2 Nordeste 12 Nordeste 0 956.7 -- 80
2020-07-16 23:00:00 15.5 4 Norte 15 Nordeste 0 956.5 -- 77
2020-07-16 22:00:00 16.9 6 Nordeste 24 Nordeste 0 956 -- 71
2020-07-16 21:00:00 20.4 8 Norte 29 Nordeste 0 955.6 -- 56
2020-07-16 20:00:00 21.6 9 Norte 25 Norte 0 955.5 -- 50
2020-07-16 19:00:00 22.4 10 Norte 30 Nordeste 0 955.3 -- 45
2020-07-16 18:00:00 23.7 12 Norte 29 Norte 0 955.2 -- 41
2020-07-16 17:00:00 23.9 13 Norte 36 Norte 0 955.6 -- 44
2020-07-16 16:00:00 24.3 13 Nordeste 29 Norte 0 955.7 -- 40
2020-07-16 15:00:00 23.9 13 Norte 33 Nordeste 0 955.9 -- 41
2020-07-16 14:00:00 23.7 9 Nordeste 21 Nordeste 0 956 -- 41
2020-07-16 13:00:00 21.6 10 Nordeste 23 Noroeste 0 956.4 -- 46
2020-07-16 12:00:00 20.6 5 Nordeste 18 Nordeste 0 956.6 -- 52
2020-07-16 11:00:00 19 5 Nordeste 14 Nordeste 0 956.6 -- 54
2020-07-16 10:00:00 15.9 3 Noroeste 9 Norte 0 956.8 -- 68
2020-07-16 09:00:00 13.2 3 Sudoeste 7 Oeste 0 956.8 -- 80
2020-07-16 08:00:00 11 2 Norte 6 Nordeste 0 956.8 -- 88
2020-07-16 07:00:00 10.1 3 Norte 6 Norte 0 956.7 -- 91
2020-07-16 06:00:00 9.4 3 Norte 8 Nordeste 0 956.7 -- 90
2020-07-16 05:00:00 10.2 2 Sur 5 Nordeste 0 956.7 -- 90
2020-07-16 04:00:00 10.4 2 Nordeste 7 Nordeste 0 956.8 -- 89
2020-07-16 03:00:00 11.2 0 Calma 8 Este 0 956.6 -- 86
2020-07-16 02:00:00 12.3 0 Calma 5 Este 0 956.9 -- 85
2020-07-16 01:00:00 13.4 0 Calma 13 Nordeste 0 957.1 -- 81
2020-07-16 00:00:00 14.5 4 Norte 25 Nordeste 0 956.9 -- 77
2020-07-15 23:00:00 15.3 6 Nordeste 19 Nordeste 0 956.5 -- 75
2020-07-15 22:00:00 16.7 10 Nordeste 26 Norte 0 956 -- 68
2020-07-15 21:00:00 18.9 14 Nordeste 28 Nordeste 0 955.8 -- 57
2020-07-15 20:00:00 20.6 15 Nordeste 31 Norte 0 955.3 -- 49
2020-07-15 19:00:00 21.7 13 Nordeste 28 Nordeste 0 955.2 -- 45
2020-07-15 18:00:00 22.4 11 Nordeste 27 Nordeste 0 955.3 -- 45
2020-07-15 17:00:00 22.2 12 Nordeste 30 Nordeste 0 955.4 -- 45
2020-07-15 16:00:00 22.5 12 Nordeste 27 Norte 0 955.4 -- 44
2020-07-15 15:00:00 22.2 13 Nordeste 34 Nordeste 0 955.6 -- 46
2020-07-15 14:00:00 21.3 17 Nordeste 41 Nordeste 0 955.8 -- 47
2020-07-15 13:00:00 20.5 15 Nordeste 40 Nordeste 0 955.7 -- 55
2020-07-15 12:00:00 18.4 8 Norte 18 Nordeste 0 955.6 -- 64
2020-07-15 11:00:00 17.5 3 Sudoeste 11 Nordeste 0 955.5 -- 62
2020-07-15 10:00:00 15.6 3 Nordeste 8 Sur 0 955.5 -- 65
2020-07-15 09:00:00 12.6 3 Sur 6 Sudeste 0 955.5 -- 74
2020-07-15 08:00:00 10.5 3 Sur 6 Sur 0 955.5 -- 82
2020-07-15 07:00:00 10 3 Sur 7 Sur 0 955.5 -- 85
2020-07-15 06:00:00 9.7 2 Sudoeste 5 Este 0 955.1 -- 85
2020-07-15 05:00:00 8.9 2 Este 5 Este 0 954.8 -- 88
2020-07-15 04:00:00 9.1 0 Calma 7 Norte 0 955 -- 84
2020-07-15 03:00:00 10 2 Norte 7 Oeste 0 955.3 -- 83
2020-07-15 02:00:00 10.6 3 Nordeste 7 Nordeste 0 955.8 -- 81
2020-07-15 01:00:00 11.7 2 Sur 12 Nordeste 0 955.4 -- 77
2020-07-15 00:00:00 13.3 6 Nordeste 14 Nordeste 0 955.3 -- 71